sensor_id;sensor_type;location;lat;lon;timestamp;P1;durP1;ratioP1;P2;durP2;ratioP2
29788;SDS011;64899;42.660;23.268;2023-11-25T00:00:27;6.82;;;2.45;;
29788;SDS011;64899;42.660;23.268;2023-11-25T00:02:55;6.80;;;3.05;;
29788;SDS011;64899;42.660;23.268;2023-11-25T00:05:21;15.50;;;3.40;;
29788;SDS011;64899;42.660;23.268;2023-11-25T00:07:47;10.75;;;2.88;;
29788;SDS011;64899;42.660;23.268;2023-11-25T00:10:12;13.73;;;2.90;;
29788;SDS011;64899;42.660;23.268;2023-11-25T00:12:38;6.40;;;2.40;;
29788;SDS011;64899;42.660;23.268;2023-11-25T00:15:03;12.32;;;2.60;;
29788;SDS011;64899;42.660;23.268;2023-11-25T00:17:29;7.25;;;2.88;;
29788;SDS011;64899;42.660;23.268;2023-11-25T00:19:56;9.32;;;2.60;;
29788;SDS011;64899;42.660;23.268;2023-11-25T00:22:22;9.57;;;2.50;;
29788;SDS011;64899;42.660;23.268;2023-11-25T00:24:48;7.65;;;3.03;;
29788;SDS011;64899;42.660;23.268;2023-11-25T00:27:14;10.85;;;2.72;;
29788;SDS011;64899;42.660;23.268;2023-11-25T00:29:39;8.95;;;2.83;;
29788;SDS011;64899;42.660;23.268;2023-11-25T00:32:05;11.82;;;2.65;;
29788;SDS011;64899;42.660;23.268;2023-11-25T00:34:32;7.13;;;2.30;;
29788;SDS011;64899;42.660;23.268;2023-11-25T00:36:57;8.68;;;2.25;;
29788;SDS011;64899;42.660;23.268;2023-11-25T00:39:23;5.80;;;2.60;;
29788;SDS011;64899;42.660;23.268;2023-11-25T00:41:49;6.10;;;2.22;;
29788;SDS011;64899;42.660;23.268;2023-11-25T00:44:14;10.00;;;2.53;;
29788;SDS011;64899;42.660;23.268;2023-11-25T00:46:40;5.60;;;2.38;;
29788;SDS011;64899;42.660;23.268;2023-11-25T00:49:05;12.02;;;2.30;;
29788;SDS011;64899;42.660;23.268;2023-11-25T00:51:31;12.88;;;2.78;;
29788;SDS011;64899;42.660;23.268;2023-11-25T00:53:57;7.35;;;2.10;;
29788;SDS011;64899;42.660;23.268;2023-11-25T00:56:23;6.93;;;2.30;;
29788;SDS011;64899;42.660;23.268;2023-11-25T00:58:48;11.13;;;2.60;;
29788;SDS011;64899;42.660;23.268;2023-11-25T01:01:14;6.40;;;1.90;;
29788;SDS011;64899;42.660;23.268;2023-11-25T01:03:39;6.57;;;2.25;;
29788;SDS011;64899;42.660;23.268;2023-11-25T01:06:07;7.57;;;2.08;;
29788;SDS011;64899;42.660;23.268;2023-11-25T01:08:33;6.63;;;2.30;;
29788;SDS011;64899;42.660;23.268;2023-11-25T01:10:59;6.15;;;2.13;;
29788;SDS011;64899;42.660;23.268;2023-11-25T01:13:24;2.65;;;1.98;;
29788;SDS011;64899;42.660;23.268;2023-11-25T01:15:50;3.30;;;2.25;;
29788;SDS011;64899;42.660;23.268;2023-11-25T01:18:16;5.25;;;2.00;;
29788;SDS011;64899;42.660;23.268;2023-11-25T01:20:42;6.78;;;2.05;;
29788;SDS011;64899;42.660;23.268;2023-11-25T01:23:08;2.22;;;1.50;;
29788;SDS011;64899;42.660;23.268;2023-11-25T01:25:33;5.10;;;2.05;;
29788;SDS011;64899;42.660;23.268;2023-11-25T01:27:59;7.55;;;1.52;;
29788;SDS011;64899;42.660;23.268;2023-11-25T01:30:24;2.03;;;1.40;;
29788;SDS011;64899;42.660;23.268;2023-11-25T01:32:50;3.45;;;1.50;;
29788;SDS011;64899;42.660;23.268;2023-11-25T01:35:15;5.53;;;1.63;;
29788;SDS011;64899;42.660;23.268;2023-11-25T01:37:40;2.30;;;1.33;;
29788;SDS011;64899;42.660;23.268;2023-11-25T01:40:06;4.97;;;1.65;;
29788;SDS011;64899;42.660;23.268;2023-11-25T01:42:35;2.45;;;1.52;;
29788;SDS011;64899;42.660;23.268;2023-11-25T01:45:01;2.50;;;1.17;;
29788;SDS011;64899;42.660;23.268;2023-11-25T01:47:27;2.70;;;1.95;;
29788;SDS011;64899;42.660;23.268;2023-11-25T01:49:53;3.13;;;1.65;;
29788;SDS011;64899;42.660;23.268;2023-11-25T01:52:18;1.65;;;1.50;;
29788;SDS011;64899;42.660;23.268;2023-11-25T01:54:44;3.15;;;1.23;;
29788;SDS011;64899;42.660;23.268;2023-11-25T01:57:09;1.73;;;1.50;;
29788;SDS011;64899;42.660;23.268;2023-11-25T01:59:35;1.95;;;1.50;;
29788;SDS011;64899;42.660;23.268;2023-11-25T02:02:01;3.38;;;1.30;;
29788;SDS011;64899;42.660;23.268;2023-11-25T02:04:28;8.82;;;3.20;;
29788;SDS011;64899;42.660;23.268;2023-11-25T02:06:53;7.97;;;4.13;;
29788;SDS011;64899;42.660;23.268;2023-11-25T02:09:19;9.52;;;3.60;;
29788;SDS011;64899;42.660;23.268;2023-11-25T02:11:58;7.82;;;3.50;;
29788;SDS011;64899;42.660;23.268;2023-11-25T02:14:24;4.47;;;3.47;;
29788;SDS011;64899;42.660;23.268;2023-11-25T02:16:50;7.20;;;3.33;;
29788;SDS011;64899;42.660;23.268;2023-11-25T02:19:17;8.98;;;3.55;;
29788;SDS011;64899;42.660;23.268;2023-11-25T02:21:43;4.53;;;3.17;;
29788;SDS011;64899;42.660;23.268;2023-11-25T02:24:09;4.65;;;2.92;;
29788;SDS011;64899;42.660;23.268;2023-11-25T02:26:35;8.93;;;2.70;;
29788;SDS011;64899;42.660;23.268;2023-11-25T02:29:01;4.50;;;2.47;;
29788;SDS011;64899;42.660;23.268;2023-11-25T02:31:27;5.80;;;2.20;;
29788;SDS011;64899;42.660;23.268;2023-11-25T02:33:52;3.55;;;1.95;;
29788;SDS011;64899;42.660;23.268;2023-11-25T02:36:17;4.05;;;1.63;;
29788;SDS011;64899;42.660;23.268;2023-11-25T02:38:43;2.72;;;1.42;;
29788;SDS011;64899;42.660;23.268;2023-11-25T02:41:08;3.25;;;1.65;;
29788;SDS011;64899;42.660;23.268;2023-11-25T02:43:35;3.78;;;1.50;;
29788;SDS011;64899;42.660;23.268;2023-11-25T02:46:01;1.98;;;1.23;;
29788;SDS011;64899;42.660;23.268;2023-11-25T02:48:28;2.58;;;1.23;;
29788;SDS011;64899;42.660;23.268;2023-11-25T02:50:54;3.33;;;1.23;;
29788;SDS011;64899;42.660;23.268;2023-11-25T02:53:20;3.40;;;1.30;;
29788;SDS011;64899;42.660;23.268;2023-11-25T02:55:46;2.22;;;1.15;;
29788;SDS011;64899;42.660;23.268;2023-11-25T02:58:11;1.58;;;1.40;;
29788;SDS011;64899;42.660;23.268;2023-11-25T03:00:37;1.33;;;1.17;;
29788;SDS011;64899;42.660;23.268;2023-11-25T03:03:05;1.20;;;1.10;;
29788;SDS011;64899;42.660;23.268;2023-11-25T03:05:47;5.82;;;1.92;;
29788;SDS011;64899;42.660;23.268;2023-11-25T03:08:17;2.50;;;1.52;;
29788;SDS011;64899;42.660;23.268;2023-11-25T03:10:43;3.35;;;1.10;;
29788;SDS011;64899;42.660;23.268;2023-11-25T03:13:11;2.63;;;1.10;;
29788;SDS011;64899;42.660;23.268;2023-11-25T03:15:37;1.40;;;0.95;;
29788;SDS011;64899;42.660;23.268;2023-11-25T03:18:03;1.17;;;0.82;;
29788;SDS011;64899;42.660;23.268;2023-11-25T03:20:32;1.15;;;0.88;;
29788;SDS011;64899;42.660;23.268;2023-11-25T03:23:01;3.15;;;1.20;;
29788;SDS011;64899;42.660;23.268;2023-11-25T03:25:28;1.45;;;0.98;;
29788;SDS011;64899;42.660;23.268;2023-11-25T03:27:55;1.27;;;1.08;;
29788;SDS011;64899;42.660;23.268;2023-11-25T03:30:22;1.13;;;1.02;;
29788;SDS011;64899;42.660;23.268;2023-11-25T03:32:48;1.48;;;1.30;;
29788;SDS011;64899;42.660;23.268;2023-11-25T03:35:13;1.02;;;0.90;;
29788;SDS011;64899;42.660;23.268;2023-11-25T03:37:39;1.25;;;0.88;;
29788;SDS011;64899;42.660;23.268;2023-11-25T03:40:05;0.90;;;0.65;;
29788;SDS011;64899;42.660;23.268;2023-11-25T03:42:32;0.82;;;0.82;;
29788;SDS011;64899;42.660;23.268;2023-11-25T03:45:00;2.35;;;0.88;;
29788;SDS011;64899;42.660;23.268;2023-11-25T03:47:26;0.77;;;0.57;;
29788;SDS011;64899;42.660;23.268;2023-11-25T03:49:51;1.40;;;0.80;;
29788;SDS011;64899;42.660;23.268;2023-11-25T03:52:17;0.77;;;0.77;;
29788;SDS011;64899;42.660;23.268;2023-11-25T03:54:42;0.88;;;0.88;;
29788;SDS011;64899;42.660;23.268;2023-11-25T03:57:08;3.38;;;0.90;;
29788;SDS011;64899;42.660;23.268;2023-11-25T03:59:33;4.03;;;0.90;;
29788;SDS011;64899;42.660;23.268;2023-11-25T04:01:59;1.10;;;0.82;;
29788;SDS011;64899;42.660;23.268;2023-11-25T04:04:24;2.65;;;0.90;;
29788;SDS011;64899;42.660;23.268;2023-11-25T04:06:50;2.45;;;0.88;;
29788;SDS011;64899;42.660;23.268;2023-11-25T04:09:15;1.33;;;0.80;;
29788;SDS011;64899;42.660;23.268;2023-11-25T04:11:41;5.32;;;1.00;;
29788;SDS011;64899;42.660;23.268;2023-11-25T04:14:09;0.82;;;0.77;;
29788;SDS011;64899;42.660;23.268;2023-11-25T04:16:35;10.73;;;3.88;;
29788;SDS011;64899;42.660;23.268;2023-11-25T04:19:00;2.67;;;1.63;;
29788;SDS011;64899;42.660;23.268;2023-11-25T04:21:26;1.88;;;1.20;;
29788;SDS011;64899;42.660;23.268;2023-11-25T04:23:52;1.90;;;1.55;;
29788;SDS011;64899;42.660;23.268;2023-11-25T04:26:19;1.40;;;1.17;;
29788;SDS011;64899;42.660;23.268;2023-11-25T04:28:45;2.78;;;1.50;;
29788;SDS011;64899;42.660;23.268;2023-11-25T04:31:11;1.90;;;1.02;;
29788;SDS011;64899;42.660;23.268;2023-11-25T04:33:36;2.05;;;1.33;;
29788;SDS011;64899;42.660;23.268;2023-11-25T04:36:02;1.52;;;1.08;;
29788;SDS011;64899;42.660;23.268;2023-11-25T04:38:28;1.40;;;1.02;;
29788;SDS011;64899;42.660;23.268;2023-11-25T04:40:54;1.98;;;1.00;;
29788;SDS011;64899;42.660;23.268;2023-11-25T04:43:20;0.90;;;0.90;;
29788;SDS011;64899;42.660;23.268;2023-11-25T04:45:45;0.90;;;0.90;;
29788;SDS011;64899;42.660;23.268;2023-11-25T04:48:11;1.13;;;0.80;;
29788;SDS011;64899;42.660;23.268;2023-11-25T04:50:36;1.65;;;1.40;;
29788;SDS011;64899;42.660;23.268;2023-11-25T04:53:01;0.93;;;0.93;;
29788;SDS011;64899;42.660;23.268;2023-11-25T04:55:27;1.00;;;0.80;;
29788;SDS011;64899;42.660;23.268;2023-11-25T04:57:53;2.45;;;0.98;;
29788;SDS011;64899;42.660;23.268;2023-11-25T05:00:19;1.73;;;0.90;;
29788;SDS011;64899;42.660;23.268;2023-11-25T05:02:46;1.67;;;1.00;;
29788;SDS011;64899;42.660;23.268;2023-11-25T05:05:12;0.85;;;0.82;;
29788;SDS011;64899;42.660;23.268;2023-11-25T05:07:37;0.80;;;0.80;;
29788;SDS011;64899;42.660;23.268;2023-11-25T05:10:04;1.38;;;0.90;;
29788;SDS011;64899;42.660;23.268;2023-11-25T05:12:31;0.90;;;0.90;;
29788;SDS011;64899;42.660;23.268;2023-11-25T05:14:56;1.00;;;0.90;;
29788;SDS011;64899;42.660;23.268;2023-11-25T05:17:21;1.17;;;1.08;;
29788;SDS011;64899;42.660;23.268;2023-11-25T05:19:47;1.00;;;1.00;;
29788;SDS011;64899;42.660;23.268;2023-11-25T05:22:13;1.10;;;1.00;;
29788;SDS011;64899;42.660;23.268;2023-11-25T05:24:38;0.90;;;0.90;;
29788;SDS011;64899;42.660;23.268;2023-11-25T05:27:04;1.10;;;1.00;;
29788;SDS011;64899;42.660;23.268;2023-11-25T05:29:29;1.33;;;0.82;;
29788;SDS011;64899;42.660;23.268;2023-11-25T05:31:54;1.92;;;1.02;;
29788;SDS011;64899;42.660;23.268;2023-11-25T05:34:20;1.10;;;1.00;;
29788;SDS011;64899;42.660;23.268;2023-11-25T05:36:46;1.23;;;0.88;;
29788;SDS011;64899;42.660;23.268;2023-11-25T05:39:12;1.25;;;1.15;;
29788;SDS011;64899;42.660;23.268;2023-11-25T05:41:41;1.10;;;1.10;;
29788;SDS011;64899;42.660;23.268;2023-11-25T05:44:06;1.10;;;1.00;;
29788;SDS011;64899;42.660;23.268;2023-11-25T05:46:34;1.73;;;0.77;;
29788;SDS011;64899;42.660;23.268;2023-11-25T05:48:59;2.33;;;0.90;;
29788;SDS011;64899;42.660;23.268;2023-11-25T05:51:31;1.33;;;1.20;;
29788;SDS011;64899;42.660;23.268;2023-11-25T05:53:57;4.60;;;1.00;;
29788;SDS011;64899;42.660;23.268;2023-11-25T05:56:23;0.90;;;0.90;;
29788;SDS011;64899;42.660;23.268;2023-11-25T05:58:52;1.10;;;1.00;;
29788;SDS011;64899;42.660;23.268;2023-11-25T06:01:17;1.30;;;1.00;;
29788;SDS011;64899;42.660;23.268;2023-11-25T06:03:43;1.10;;;1.00;;
29788;SDS011;64899;42.660;23.268;2023-11-25T06:06:09;0.77;;;0.77;;
29788;SDS011;64899;42.660;23.268;2023-11-25T06:08:35;1.13;;;0.90;;
29788;SDS011;64899;42.660;23.268;2023-11-25T06:11:01;1.27;;;0.90;;
29788;SDS011;64899;42.660;23.268;2023-11-25T06:13:27;1.25;;;1.00;;
29788;SDS011;64899;42.660;23.268;2023-11-25T06:15:53;2.25;;;1.30;;
29788;SDS011;64899;42.660;23.268;2023-11-25T06:18:18;1.83;;;1.10;;
29788;SDS011;64899;42.660;23.268;2023-11-25T06:20:45;1.42;;;1.33;;
29788;SDS011;64899;42.660;23.268;2023-11-25T06:23:12;2.70;;;1.38;;
29788;SDS011;64899;42.660;23.268;2023-11-25T06:25:38;2.47;;;1.73;;
29788;SDS011;64899;42.660;23.268;2023-11-25T06:28:03;2.60;;;1.50;;
29788;SDS011;64899;42.660;23.268;2023-11-25T06:30:29;1.70;;;1.60;;
29788;SDS011;64899;42.660;23.268;2023-11-25T06:32:54;2.90;;;1.80;;
29788;SDS011;64899;42.660;23.268;2023-11-25T06:35:19;2.53;;;1.90;;
29788;SDS011;64899;42.660;23.268;2023-11-25T06:37:48;3.47;;;1.60;;
29788;SDS011;64899;42.660;23.268;2023-11-25T06:40:14;1.85;;;1.60;;
29788;SDS011;64899;42.660;23.268;2023-11-25T06:42:40;1.30;;;1.20;;
29788;SDS011;64899;42.660;23.268;2023-11-25T06:45:06;1.63;;;1.40;;
29788;SDS011;64899;42.660;23.268;2023-11-25T06:47:31;1.65;;;1.42;;
29788;SDS011;64899;42.660;23.268;2023-11-25T06:49:57;1.65;;;1.30;;
29788;SDS011;64899;42.660;23.268;2023-11-25T06:52:23;1.48;;;1.20;;
29788;SDS011;64899;42.660;23.268;2023-11-25T06:54:48;1.60;;;1.20;;
29788;SDS011;64899;42.660;23.268;2023-11-25T06:57:14;1.83;;;1.40;;
29788;SDS011;64899;42.660;23.268;2023-11-25T06:59:40;1.75;;;1.33;;
29788;SDS011;64899;42.660;23.268;2023-11-25T07:02:10;2.03;;;1.52;;
29788;SDS011;64899;42.660;23.268;2023-11-25T07:04:38;1.30;;;1.20;;
29788;SDS011;64899;42.660;23.268;2023-11-25T07:07:04;1.58;;;1.48;;
29788;SDS011;64899;42.660;23.268;2023-11-25T07:09:29;1.63;;;1.40;;
29788;SDS011;64899;42.660;23.268;2023-11-25T07:11:55;1.63;;;1.52;;
29788;SDS011;64899;42.660;23.268;2023-11-25T07:14:21;2.85;;;1.33;;
29788;SDS011;64899;42.660;23.268;2023-11-25T07:16:47;1.88;;;1.30;;
29788;SDS011;64899;42.660;23.268;2023-11-25T07:19:13;1.67;;;1.30;;
29788;SDS011;64899;42.660;23.268;2023-11-25T07:21:38;1.65;;;1.42;;
29788;SDS011;64899;42.660;23.268;2023-11-25T07:24:04;2.15;;;1.50;;
29788;SDS011;64899;42.660;23.268;2023-11-25T07:26:30;2.10;;;1.90;;
29788;SDS011;64899;42.660;23.268;2023-11-25T07:28:55;2.40;;;2.20;;
29788;SDS011;64899;42.660;23.268;2023-11-25T07:31:21;3.08;;;2.50;;
29788;SDS011;64899;42.660;23.268;2023-11-25T07:33:47;2.35;;;2.15;;
29788;SDS011;64899;42.660;23.268;2023-11-25T07:36:12;4.20;;;2.88;;
29788;SDS011;64899;42.660;23.268;2023-11-25T07:38:38;3.38;;;2.80;;
29788;SDS011;64899;42.660;23.268;2023-11-25T07:41:03;3.20;;;2.80;;
29788;SDS011;64899;42.660;23.268;2023-11-25T07:43:29;5.90;;;3.05;;
29788;SDS011;64899;42.660;23.268;2023-11-25T07:45:56;4.40;;;2.97;;
29788;SDS011;64899;42.660;23.268;2023-11-25T07:48:22;7.70;;;4.75;;
29788;SDS011;64899;42.660;23.268;2023-11-25T07:50:47;12.90;;;7.28;;
29788;SDS011;64899;42.660;23.268;2023-11-25T07:53:13;10.98;;;6.80;;
29788;SDS011;64899;42.660;23.268;2023-11-25T07:55:38;12.52;;;8.55;;
29788;SDS011;64899;42.660;23.268;2023-11-25T07:58:05;10.00;;;6.90;;
29788;SDS011;64899;42.660;23.268;2023-11-25T08:00:30;8.70;;;5.75;;
29788;SDS011;64899;42.660;23.268;2023-11-25T08:02:56;6.75;;;5.00;;
29788;SDS011;64899;42.660;23.268;2023-11-25T08:05:23;8.38;;;5.43;;
29788;SDS011;64899;42.660;23.268;2023-11-25T08:07:54;7.63;;;5.22;;
29788;SDS011;64899;42.660;23.268;2023-11-25T08:10:20;8.80;;;5.60;;
29788;SDS011;64899;42.660;23.268;2023-11-25T08:12:46;7.88;;;5.03;;
29788;SDS011;64899;42.660;23.268;2023-11-25T08:15:12;7.55;;;4.60;;
29788;SDS011;64899;42.660;23.268;2023-11-25T08:17:41;7.57;;;4.95;;
29788;SDS011;64899;42.660;23.268;2023-11-25T08:20:08;8.68;;;5.60;;
29788;SDS011;64899;42.660;23.268;2023-11-25T08:22:35;10.25;;;6.72;;
29788;SDS011;64899;42.660;23.268;2023-11-25T08:25:01;8.32;;;5.53;;
29788;SDS011;64899;42.660;23.268;2023-11-25T08:27:32;8.93;;;5.22;;
29788;SDS011;64899;42.660;23.268;2023-11-25T08:29:58;9.93;;;4.55;;
29788;SDS011;64899;42.660;23.268;2023-11-25T08:32:23;8.88;;;5.60;;
29788;SDS011;64899;42.660;23.268;2023-11-25T08:34:48;8.95;;;4.90;;
29788;SDS011;64899;42.660;23.268;2023-11-25T08:37:15;8.63;;;5.35;;
29788;SDS011;64899;42.660;23.268;2023-11-25T08:39:41;12.27;;;5.55;;
29788;SDS011;64899;42.660;23.268;2023-11-25T08:42:08;7.07;;;4.18;;
29788;SDS011;64899;42.660;23.268;2023-11-25T08:44:35;9.27;;;5.13;;
29788;SDS011;64899;42.660;23.268;2023-11-25T08:47:01;9.43;;;4.75;;
29788;SDS011;64899;42.660;23.268;2023-11-25T08:49:26;5.55;;;3.88;;
29788;SDS011;64899;42.660;23.268;2023-11-25T08:51:52;6.75;;;4.20;;
29788;SDS011;64899;42.660;23.268;2023-11-25T08:54:18;8.60;;;4.63;;
29788;SDS011;64899;42.660;23.268;2023-11-25T08:56:43;6.10;;;3.78;;
29788;SDS011;64899;42.660;23.268;2023-11-25T08:59:13;6.38;;;4.53;;
29788;SDS011;64899;42.660;23.268;2023-11-25T09:01:44;4.00;;;3.45;;
29788;SDS011;64899;42.660;23.268;2023-11-25T09:04:12;6.30;;;4.05;;
29788;SDS011;64899;42.660;23.268;2023-11-25T09:06:42;9.95;;;5.22;;
29788;SDS011;64899;42.660;23.268;2023-11-25T09:09:11;12.02;;;6.60;;
29788;SDS011;64899;42.660;23.268;2023-11-25T09:11:38;8.77;;;5.72;;
29788;SDS011;64899;42.660;23.268;2023-11-25T09:14:03;7.93;;;4.72;;
29788;SDS011;64899;42.660;23.268;2023-11-25T09:16:32;10.05;;;5.13;;
29788;SDS011;64899;42.660;23.268;2023-11-25T09:18:58;8.07;;;3.92;;
29788;SDS011;64899;42.660;23.268;2023-11-25T09:21:25;7.28;;;4.72;;
29788;SDS011;64899;42.660;23.268;2023-11-25T09:23:51;8.90;;;4.60;;
29788;SDS011;64899;42.660;23.268;2023-11-25T09:26:16;7.93;;;5.15;;
29788;SDS011;64899;42.660;23.268;2023-11-25T09:28:42;5.97;;;3.78;;
29788;SDS011;64899;42.660;23.268;2023-11-25T09:31:07;6.90;;;4.13;;
29788;SDS011;64899;42.660;23.268;2023-11-25T09:33:33;7.32;;;4.47;;
29788;SDS011;64899;42.660;23.268;2023-11-25T09:35:58;6.45;;;4.95;;
29788;SDS011;64899;42.660;23.268;2023-11-25T09:38:24;5.65;;;4.10;;
29788;SDS011;64899;42.660;23.268;2023-11-25T09:40:50;7.22;;;4.68;;
29788;SDS011;64899;42.660;23.268;2023-11-25T09:43:15;4.97;;;3.65;;
29788;SDS011;64899;42.660;23.268;2023-11-25T09:45:42;4.53;;;3.75;;
29788;SDS011;64899;42.660;23.268;2023-11-25T09:48:09;8.00;;;3.85;;
29788;SDS011;64899;42.660;23.268;2023-11-25T09:50:35;4.70;;;3.40;;
29788;SDS011;64899;42.660;23.268;2023-11-25T09:53:03;6.00;;;3.20;;
29788;SDS011;64899;42.660;23.268;2023-11-25T09:55:34;4.47;;;3.05;;
29788;SDS011;64899;42.660;23.268;2023-11-25T09:58:05;5.68;;;4.00;;
29788;SDS011;64899;42.660;23.268;2023-11-25T10:00:35;8.65;;;4.72;;
29788;SDS011;64899;42.660;23.268;2023-11-25T10:03:03;8.40;;;4.85;;
29788;SDS011;64899;42.660;23.268;2023-11-25T10:05:34;9.60;;;4.03;;
29788;SDS011;64899;42.660;23.268;2023-11-25T10:07:59;5.50;;;3.72;;
29788;SDS011;64899;42.660;23.268;2023-11-25T10:10:25;4.97;;;3.30;;
29788;SDS011;64899;42.660;23.268;2023-11-25T10:12:53;5.55;;;3.90;;
29788;SDS011;64899;42.660;23.268;2023-11-25T10:15:19;7.40;;;4.65;;
29788;SDS011;64899;42.660;23.268;2023-11-25T10:17:48;5.72;;;3.72;;
29788;SDS011;64899;42.660;23.268;2023-11-25T10:20:13;6.50;;;4.43;;
29788;SDS011;64899;42.660;23.268;2023-11-25T10:22:53;7.28;;;5.63;;
29788;SDS011;64899;42.660;23.268;2023-11-25T10:25:21;7.85;;;4.88;;
29788;SDS011;64899;42.660;23.268;2023-11-25T10:27:46;8.10;;;4.70;;
29788;SDS011;64899;42.660;23.268;2023-11-25T10:30:12;11.32;;;4.38;;
29788;SDS011;64899;42.660;23.268;2023-11-25T10:32:41;5.95;;;4.05;;
29788;SDS011;64899;42.660;23.268;2023-11-25T10:35:07;4.32;;;3.40;;
29788;SDS011;64899;42.660;23.268;2023-11-25T10:37:39;5.88;;;3.88;;
29788;SDS011;64899;42.660;23.268;2023-11-25T10:40:08;5.22;;;4.22;;
29788;SDS011;64899;42.660;23.268;2023-11-25T10:42:44;5.88;;;3.97;;
29788;SDS011;64899;42.660;23.268;2023-11-25T10:45:13;6.53;;;4.15;;
29788;SDS011;64899;42.660;23.268;2023-11-25T10:47:42;5.43;;;3.65;;
29788;SDS011;64899;42.660;23.268;2023-11-25T10:50:08;5.38;;;3.70;;
29788;SDS011;64899;42.660;23.268;2023-11-25T10:52:34;5.30;;;3.22;;
29788;SDS011;64899;42.660;23.268;2023-11-25T10:55:08;3.75;;;2.95;;
29788;SDS011;64899;42.660;23.268;2023-11-25T10:57:36;5.03;;;3.38;;
29788;SDS011;64899;42.660;23.268;2023-11-25T11:00:02;5.38;;;3.47;;
29788;SDS011;64899;42.660;23.268;2023-11-25T11:02:37;4.15;;;3.33;;
29788;SDS011;64899;42.660;23.268;2023-11-25T11:05:06;4.25;;;2.70;;
29788;SDS011;64899;42.660;23.268;2023-11-25T11:07:36;6.07;;;2.90;;
29788;SDS011;64899;42.660;23.268;2023-11-25T11:10:04;3.45;;;2.40;;
29788;SDS011;64899;42.660;23.268;2023-11-25T11:12:42;2.47;;;2.08;;
29788;SDS011;64899;42.660;23.268;2023-11-25T11:15:14;4.28;;;2.45;;
29788;SDS011;64899;42.660;23.268;2023-11-25T11:20:22;2.97;;;2.55;;
29788;SDS011;64899;42.660;23.268;2023-11-25T11:22:49;3.03;;;2.38;;
29788;SDS011;64899;42.660;23.268;2023-11-25T11:25:40;3.03;;;2.58;;
29788;SDS011;64899;42.660;23.268;2023-11-25T11:28:11;3.95;;;2.78;;
29788;SDS011;64899;42.660;23.268;2023-11-25T11:34:01;3.88;;;2.80;;
29788;SDS011;64899;42.660;23.268;2023-11-25T11:36:29;3.80;;;3.38;;
29788;SDS011;64899;42.660;23.268;2023-11-25T11:38:55;3.78;;;2.97;;
29788;SDS011;64899;42.660;23.268;2023-11-25T11:44:05;4.68;;;3.97;;
29788;SDS011;64899;42.660;23.268;2023-11-25T11:46:33;5.40;;;3.92;;
29788;SDS011;64899;42.660;23.268;2023-11-25T11:49:21;5.20;;;4.32;;
29788;SDS011;64899;42.660;23.268;2023-11-25T11:51:59;5.70;;;4.10;;
29788;SDS011;64899;42.660;23.268;2023-11-25T11:54:26;6.68;;;4.50;;
29788;SDS011;64899;42.660;23.268;2023-11-25T11:57:02;6.07;;;4.65;;
29788;SDS011;64899;42.660;23.268;2023-11-25T12:02:40;7.65;;;5.15;;
29788;SDS011;64899;42.660;23.268;2023-11-25T12:05:08;7.93;;;5.03;;
29788;SDS011;64899;42.660;23.268;2023-11-25T12:07:34;10.77;;;4.82;;
29788;SDS011;64899;42.660;23.268;2023-11-25T12:10:00;8.90;;;5.80;;
29788;SDS011;64899;42.660;23.268;2023-11-25T12:12:25;12.75;;;7.07;;
29788;SDS011;64899;42.660;23.268;2023-11-25T12:14:51;9.70;;;5.05;;
29788;SDS011;64899;42.660;23.268;2023-11-25T12:17:17;11.27;;;5.80;;
29788;SDS011;64899;42.660;23.268;2023-11-25T12:19:42;13.30;;;6.93;;
29788;SDS011;64899;42.660;23.268;2023-11-25T12:22:09;13.73;;;7.30;;
29788;SDS011;64899;42.660;23.268;2023-11-25T12:24:36;11.88;;;7.07;;
29788;SDS011;64899;42.660;23.268;2023-11-25T12:27:03;12.27;;;6.43;;
29788;SDS011;64899;42.660;23.268;2023-11-25T12:29:32;10.18;;;6.07;;
29788;SDS011;64899;42.660;23.268;2023-11-25T12:31:58;11.43;;;6.80;;
29788;SDS011;64899;42.660;23.268;2023-11-25T12:34:24;14.90;;;7.70;;
29788;SDS011;64899;42.660;23.268;2023-11-25T12:36:50;10.20;;;6.85;;
29788;SDS011;64899;42.660;23.268;2023-11-25T12:39:15;9.95;;;6.63;;
29788;SDS011;64899;42.660;23.268;2023-11-25T12:41:41;9.52;;;5.88;;
29788;SDS011;64899;42.660;23.268;2023-11-25T12:44:06;8.90;;;6.28;;
29788;SDS011;64899;42.660;23.268;2023-11-25T12:46:35;8.60;;;5.78;;
29788;SDS011;64899;42.660;23.268;2023-11-25T12:49:16;9.45;;;5.85;;
29788;SDS011;64899;42.660;23.268;2023-11-25T12:51:49;7.68;;;6.28;;
29788;SDS011;64899;42.660;23.268;2023-11-25T12:54:18;10.27;;;5.80;;
29788;SDS011;64899;42.660;23.268;2023-11-25T12:56:48;7.80;;;5.35;;
29788;SDS011;64899;42.660;23.268;2023-11-25T12:59:20;7.68;;;5.47;;
29788;SDS011;64899;42.660;23.268;2023-11-25T13:01:53;9.30;;;6.40;;
29788;SDS011;64899;42.660;23.268;2023-11-25T13:04:19;8.45;;;5.97;;
29788;SDS011;64899;42.660;23.268;2023-11-25T13:06:48;10.38;;;6.97;;
29788;SDS011;64899;42.660;23.268;2023-11-25T13:09:13;21.63;;;12.07;;
29788;SDS011;64899;42.660;23.268;2023-11-25T13:11:40;14.60;;;7.50;;
29788;SDS011;64899;42.660;23.268;2023-11-25T13:14:06;10.68;;;6.93;;
29788;SDS011;64899;42.660;23.268;2023-11-25T13:16:31;8.60;;;5.50;;
29788;SDS011;64899;42.660;23.268;2023-11-25T13:18:57;12.98;;;7.72;;
29788;SDS011;64899;42.660;23.268;2023-11-25T13:21:23;13.13;;;8.52;;
29788;SDS011;64899;42.660;23.268;2023-11-25T13:23:49;10.50;;;7.07;;
29788;SDS011;64899;42.660;23.268;2023-11-25T13:26:15;15.20;;;8.48;;
29788;SDS011;64899;42.660;23.268;2023-11-25T13:28:40;9.10;;;6.68;;
29788;SDS011;64899;42.660;23.268;2023-11-25T13:31:06;10.55;;;7.03;;
29788;SDS011;64899;42.660;23.268;2023-11-25T13:33:31;12.32;;;8.38;;
29788;SDS011;64899;42.660;23.268;2023-11-25T13:35:56;11.73;;;6.70;;
29788;SDS011;64899;42.660;23.268;2023-11-25T13:38:22;11.93;;;6.93;;
29788;SDS011;64899;42.660;23.268;2023-11-25T13:40:47;12.30;;;7.40;;
29788;SDS011;64899;42.660;23.268;2023-11-25T13:43:13;13.32;;;8.02;;
29788;SDS011;64899;42.660;23.268;2023-11-25T13:45:38;5.45;;;4.07;;
29788;SDS011;64899;42.660;23.268;2023-11-25T13:48:04;3.95;;;3.15;;
29788;SDS011;64899;42.660;23.268;2023-11-25T13:50:33;5.47;;;4.07;;
29788;SDS011;64899;42.660;23.268;2023-11-25T13:52:59;5.68;;;3.53;;
29788;SDS011;64899;42.660;23.268;2023-11-25T13:55:30;5.80;;;3.75;;
29788;SDS011;64899;42.660;23.268;2023-11-25T13:57:57;5.13;;;3.72;;
29788;SDS011;64899;42.660;23.268;2023-11-25T14:00:22;6.40;;;4.82;;
29788;SDS011;64899;42.660;23.268;2023-11-25T14:02:48;5.57;;;4.15;;
29788;SDS011;64899;42.660;23.268;2023-11-25T14:07:46;6.28;;;4.45;;
29788;SDS011;64899;42.660;23.268;2023-11-25T14:10:13;7.30;;;4.35;;
29788;SDS011;64899;42.660;23.268;2023-11-25T14:12:38;6.55;;;4.80;;
29788;SDS011;64899;42.660;23.268;2023-11-25T14:15:04;9.00;;;5.85;;
29788;SDS011;64899;42.660;23.268;2023-11-25T14:17:32;6.93;;;5.03;;
29788;SDS011;64899;42.660;23.268;2023-11-25T14:20:01;6.32;;;3.85;;
29788;SDS011;64899;42.660;23.268;2023-11-25T14:22:40;3.92;;;2.97;;
29788;SDS011;64899;42.660;23.268;2023-11-25T14:25:09;4.25;;;3.22;;
29788;SDS011;64899;42.660;23.268;2023-11-25T14:27:35;6.13;;;3.70;;
29788;SDS011;64899;42.660;23.268;2023-11-25T14:30:01;4.15;;;3.38;;
29788;SDS011;64899;42.660;23.268;2023-11-25T14:32:26;4.82;;;3.40;;
29788;SDS011;64899;42.660;23.268;2023-11-25T14:34:52;6.28;;;3.78;;
29788;SDS011;64899;42.660;23.268;2023-11-25T14:37:17;5.63;;;3.72;;
29788;SDS011;64899;42.660;23.268;2023-11-25T14:39:44;6.47;;;4.28;;
29788;SDS011;64899;42.660;23.268;2023-11-25T14:42:09;6.07;;;4.05;;
29788;SDS011;64899;42.660;23.268;2023-11-25T14:44:36;7.22;;;4.43;;